Time;durP1;ratioP1;P1;durP2;ratioP2;P2;SDS_P1;SDS_P2;PMS_P1;PMS_P2;Temp;Humidity;BMP_temperature;BMP_pressure;BME280_temperature;BME280_humidity;BME280_pressure;Samples;Min_cycle;Max_cycle;Signal;HPM_P1;HPM_P2
2023/10/15 00:00:34;;;;;;;14.23;5.00;;;13.70;64.60;;;;;;5099903;27;21274;-78
2023/10/15 00:03:02;;;;;;;7.93;2.60;;;13.70;64.70;;;;;;5112023;27;20466;-77
2023/10/15 00:05:32;;;;;;;11.33;2.07;;;13.70;64.70;;;;;;5111361;27;20536;-76
2023/10/15 00:08:00;;;;;;;7.70;2.70;;;13.60;64.80;;;;;;5109122;28;20487;-78
2023/10/15 00:10:31;;;;;;;10.10;2.90;;;13.60;64.80;;;;;;5095968;28;20919;-80
2023/10/15 00:13:00;;;;;;;6.10;2.40;;;13.60;64.80;;;;;;5111807;28;20471;-81
2023/10/15 00:15:29;;;;;;;7.67;1.90;;;13.50;64.90;;;;;;5099475;27;21217;-80
2023/10/15 00:18:01;;;;;;;9.97;2.80;;;13.50;65.00;;;;;;5094175;28;20444;-79
2023/10/15 00:20:34;;;;;;;15.40;2.07;;;13.50;65.10;;;;;;5109451;28;20455;-80
2023/10/15 00:23:05;;;;;;;10.80;2.70;;;13.50;65.10;;;;;;5114697;27;20526;-80
2023/10/15 00:25:37;;;;;;;10.90;1.90;;;13.40;65.20;;;;;;5095737;28;20469;-81
2023/10/15 00:28:09;;;;;;;6.90;1.60;;;13.40;65.20;;;;;;5110729;27;20541;-80
2023/10/15 00:30:39;;;;;;;11.10;2.10;;;13.40;65.30;;;;;;5091450;28;20468;-79
2023/10/15 00:33:11;;;;;;;8.70;2.03;;;13.40;65.30;;;;;;5094084;28;20471;-79
2023/10/15 00:35:44;;;;;;;6.50;2.00;;;13.30;65.40;;;;;;5091199;28;20464;-79
2023/10/15 00:38:16;;;;;;;8.60;2.20;;;13.30;65.50;;;;;;5095005;28;20463;-81
2023/10/15 00:40:45;;;;;;;9.90;2.30;;;13.30;65.50;;;;;;5109305;27;20535;-80
2023/10/15 00:43:17;;;;;;;8.90;2.30;;;13.20;65.60;;;;;;5111389;28;20852;-82
2023/10/15 00:45:47;;;;;;;5.40;1.97;;;13.10;65.70;;;;;;5094390;27;20454;-82
2023/10/15 00:48:27;;;;;;;7.30;2.30;;;13.00;65.80;;;;;;5115287;27;20462;-83
2023/10/15 00:50:55;;;;;;;8.07;1.93;;;13.00;65.90;;;;;;5093948;28;20884;-79
2023/10/15 00:53:28;;;;;;;6.87;2.00;;;12.90;66.00;;;;;;5109914;27;20503;-80
2023/10/15 00:56:02;;;;;;;10.20;1.60;;;12.80;66.00;;;;;;5090882;28;21049;-79
2023/10/15 00:58:34;;;;;;;10.10;2.33;;;12.80;66.20;;;;;;5115189;27;20474;-80
2023/10/15 01:08:34;;;;;;;7.93;1.40;;;12.80;66.60;;;;;;5163827;27;20489;-78
2023/10/15 01:11:10;;;;;;;7.10;2.23;;;12.70;66.60;;;;;;5182705;27;20449;-78
2023/10/15 01:13:39;;;;;;;11.90;2.27;;;12.80;66.60;;;;;;5161253;27;20444;-80
2023/10/15 01:16:08;;;;;;;5.97;1.67;;;12.80;66.60;;;;;;5164283;27;20456;-81
2023/10/15 01:18:56;;;;;;;5.60;1.50;;;12.80;66.50;;;;;;5179254;27;20469;-79
2023/10/15 01:21:29;;;;;;;6.23;1.90;;;12.80;66.40;;;;;;5183449;27;20459;-81
2023/10/15 01:24:05;;;;;;;7.07;1.97;;;12.80;66.40;;;;;;5178136;27;21004;-81
2023/10/15 01:26:39;;;;;;;6.20;2.20;;;12.80;66.50;;;;;;5162349;27;20917;-80
2023/10/15 01:29:07;;;;;;;10.63;1.60;;;12.80;66.50;;;;;;5177238;27;21362;-79
2023/10/15 01:31:50;;;;;;;7.40;2.20;;;12.70;66.40;;;;;;5143046;27;20480;-80
2023/10/15 01:34:21;;;;;;;5.93;1.97;;;12.70;66.50;;;;;;5130050;27;20454;-79
2023/10/15 01:36:51;;;;;;;9.27;2.00;;;12.70;66.50;;;;;;5125339;27;20454;-80
2023/10/15 01:39:32;;;;;;;8.50;2.10;;;12.60;66.50;;;;;;5129246;27;20455;-80
2023/10/15 01:42:06;;;;;;;6.30;2.13;;;12.60;66.50;;;;;;5144093;27;20518;-80
2023/10/15 01:44:39;;;;;;;9.17;2.20;;;12.50;66.60;;;;;;5129881;27;20454;-81
2023/10/15 01:47:11;;;;;;;9.30;1.57;;;12.50;66.60;;;;;;5125315;27;20458;-80
2023/10/15 01:49:39;;;;;;;6.50;2.40;;;12.40;66.60;;;;;;5144842;27;20447;-81
2023/10/15 01:52:09;;;;;;;12.00;2.00;;;12.40;66.70;;;;;;5143871;27;20452;-80
2023/10/15 01:54:41;;;;;;;9.13;1.83;;;12.40;66.80;;;;;;5128908;27;20458;-80
2023/10/15 01:57:14;;;;;;;9.27;2.43;;;12.40;66.80;;;;;;5148031;27;20546;-81
2023/10/15 01:59:46;;;;;;;10.80;1.97;;;12.40;66.80;;;;;;5132359;27;21035;-79
2023/10/15 02:02:17;;;;;;;11.60;2.47;;;12.40;66.80;;;;;;5108187;27;20463;-79
2023/10/15 02:04:46;;;;;;;8.20;2.10;;;12.30;66.90;;;;;;5123142;28;20465;-79
2023/10/15 02:07:16;;;;;;;7.10;2.10;;;12.30;66.90;;;;;;5124621;28;20478;-79
2023/10/15 02:09:45;;;;;;;6.70;1.80;;;12.30;67.00;;;;;;5124897;28;20534;-79
2023/10/15 02:12:17;;;;;;;15.03;2.23;;;12.30;67.00;;;;;;5108914;28;20467;-79
2023/10/15 02:14:47;;;;;;;11.90;2.80;;;12.30;67.10;;;;;;5124268;27;21030;-79
2023/10/15 02:17:18;;;;;;;7.57;2.10;;;12.30;67.10;;;;;;5094651;28;20456;-80
2023/10/15 02:19:48;;;;;;;8.90;2.53;;;12.30;67.00;;;;;;5125643;27;20460;-79
2023/10/15 02:22:16;;;;;;;12.57;2.27;;;12.30;67.00;;;;;;5093018;28;20461;-79
2023/10/15 02:24:47;;;;;;;9.63;2.20;;;12.30;67.00;;;;;;5093706;28;20480;-80
2023/10/15 02:27:24;;;;;;;5.80;1.90;;;12.20;66.90;;;;;;5110433;28;20513;-81
2023/10/15 02:29:53;;;;;;;9.30;1.87;;;12.20;66.90;;;;;;5090387;28;20456;-79
2023/10/15 02:32:28;;;;;;;6.33;1.57;;;12.10;67.10;;;;;;5091566;28;20499;-80
2023/10/15 02:34:58;;;;;;;11.03;2.13;;;12.10;67.20;;;;;;5109602;28;20468;-80
2023/10/15 02:37:28;;;;;;;10.00;2.40;;;12.10;67.20;;;;;;5112212;28;20533;-78
2023/10/15 02:39:59;;;;;;;6.33;1.97;;;12.10;67.20;;;;;;5110619;28;20462;-80
2023/10/15 02:42:35;;;;;;;10.50;2.33;;;12.00;67.10;;;;;;5109115;28;20459;-79
2023/10/15 02:45:06;;;;;;;8.03;2.70;;;12.00;67.10;;;;;;5111130;28;20439;-79
2023/10/15 02:47:42;;;;;;;7.00;2.07;;;11.90;67.10;;;;;;5108513;28;20439;-80
2023/10/15 02:50:16;;;;;;;9.17;1.90;;;11.90;67.20;;;;;;5109629;28;20487;-79
2023/10/15 02:52:45;;;;;;;11.33;2.77;;;11.90;67.20;;;;;;5111333;28;20814;-80
2023/10/15 02:55:26;;;;;;;6.50;2.10;;;11.90;67.30;;;;;;5110863;28;20459;-79
2023/10/15 02:58:01;;;;;;;7.10;1.97;;;11.80;67.30;;;;;;5096350;28;20448;-80
2023/10/15 03:00:34;;;;;;;8.97;1.93;;;11.80;67.30;;;;;;5090935;28;20479;-79
2023/10/15 03:03:07;;;;;;;8.60;2.30;;;11.80;67.30;;;;;;5089325;28;20993;-81
2023/10/15 03:05:40;;;;;;;6.20;2.20;;;11.80;67.30;;;;;;5087993;28;20456;-80
2023/10/15 03:08:16;;;;;;;8.73;2.30;;;11.70;67.30;;;;;;5094358;28;20463;-81
2023/10/15 03:10:56;;;;;;;9.77;2.33;;;11.60;67.10;;;;;;5109039;28;21080;-80
2023/10/15 03:13:26;;;;;;;8.23;2.40;;;11.50;67.00;;;;;;5121885;27;20441;-79
2023/10/15 03:15:57;;;;;;;8.90;2.23;;;11.40;67.10;;;;;;5105496;28;20463;-78
2023/10/15 03:18:28;;;;;;;8.67;2.90;;;11.30;67.20;;;;;;5111017;28;20456;-81
2023/10/15 03:21:09;;;;;;;6.60;2.03;;;11.20;67.30;;;;;;5110567;28;20827;-80
2023/10/15 03:23:39;;;;;;;11.20;3.00;;;11.20;67.30;;;;;;5125337;27;20478;-80
2023/10/15 03:26:09;;;;;;;9.07;2.20;;;11.10;67.40;;;;;;5119213;27;20456;-80
2023/10/15 03:28:44;;;;;;;7.47;2.13;;;11.10;67.50;;;;;;5108322;28;20471;-79
2023/10/15 03:31:16;;;;;;;10.10;2.00;;;11.10;67.50;;;;;;5109898;27;20479;-79
2023/10/15 03:36:29;;;;;;;6.30;2.03;;;11.10;67.50;;;;;;5108398;28;20463;-79
2023/10/15 03:38:58;;;;;;;7.37;1.70;;;11.10;67.60;;;;;;5108761;28;20496;-80
2023/10/15 03:41:29;;;;;;;5.90;2.00;;;11.10;67.60;;;;;;5098870;28;20462;-79
2023/10/15 03:44:03;;;;;;;6.87;2.20;;;11.00;67.50;;;;;;5091378;27;20671;-79
2023/10/15 03:46:34;;;;;;;8.40;2.33;;;11.00;67.60;;;;;;5109474;27;20467;-81
2023/10/15 03:49:07;;;;;;;6.57;2.20;;;11.00;67.80;;;;;;5109655;28;20448;-82
2023/10/15 03:51:40;;;;;;;8.27;2.03;;;11.00;67.80;;;;;;5099384;28;20505;-81
2023/10/15 03:54:13;;;;;;;5.80;1.73;;;11.00;68.00;;;;;;5107237;28;20444;-81
2023/10/15 03:56:43;;;;;;;9.30;2.00;;;11.00;67.80;;;;;;5086942;28;20539;-79
2023/10/15 03:59:12;;;;;;;5.80;2.10;;;11.00;67.80;;;;;;5106249;28;20526;-81
2023/10/15 04:01:46;;;;;;;8.63;2.20;;;10.90;68.00;;;;;;5119524;27;20465;-80
2023/10/15 04:04:16;;;;;;;11.70;2.10;;;10.90;68.00;;;;;;5127600;27;20474;-79
2023/10/15 04:06:45;;;;;;;8.03;2.13;;;10.90;68.10;;;;;;5130473;27;20500;-79
2023/10/15 04:09:15;;;;;;;7.23;2.30;;;10.90;68.20;;;;;;5107807;27;20501;-78
2023/10/15 04:11:43;;;;;;;8.73;2.10;;;11.00;68.20;;;;;;5128836;27;20443;-79
2023/10/15 04:14:17;;;;;;;7.13;2.20;;;10.90;68.30;;;;;;5126696;27;20455;-80
2023/10/15 04:16:46;;;;;;;6.03;1.67;;;10.90;68.30;;;;;;5126551;27;20459;-79
2023/10/15 04:19:17;;;;;;;8.47;2.07;;;10.90;68.40;;;;;;5129825;27;21151;-79
2023/10/15 04:21:46;;;;;;;7.87;2.30;;;10.90;68.30;;;;;;5108248;27;20462;-79
2023/10/15 04:24:21;;;;;;;6.77;2.20;;;10.90;68.30;;;;;;5108335;27;20847;-80
2023/10/15 04:26:50;;;;;;;6.47;1.83;;;10.90;68.30;;;;;;5107675;27;20470;-79
2023/10/15 04:29:21;;;;;;;6.10;1.83;;;10.90;68.40;;;;;;5106038;27;20476;-80
2023/10/15 04:32:00;;;;;;;9.90;2.10;;;10.90;68.50;;;;;;5108585;27;20639;-80
2023/10/15 04:34:30;;;;;;;13.73;2.10;;;10.90;68.50;;;;;;5125955;27;20473;-81
2023/10/15 04:36:59;;;;;;;10.13;2.03;;;10.90;68.50;;;;;;5133975;27;20455;-79
2023/10/15 04:39:28;;;;;;;6.57;1.90;;;10.90;68.50;;;;;;5131336;27;20447;-80
2023/10/15 04:42:22;;;;;;;6.40;2.30;;;10.90;68.60;;;;;;5126258;27;20524;-81
2023/10/15 04:44:53;;;;;;;9.20;2.00;;;10.90;68.60;;;;;;5127677;27;20980;-79
2023/10/15 04:47:28;;;;;;;5.80;1.73;;;10.90;68.60;;;;;;5133057;27;21246;-81
2023/10/15 04:49:57;;;;;;;4.50;2.13;;;10.90;68.50;;;;;;5110950;27;20515;-79
2023/10/15 04:52:28;;;;;;;5.80;1.70;;;10.80;68.60;;;;;;5128994;27;20455;-80
2023/10/15 04:54:56;;;;;;;9.60;2.30;;;10.80;68.70;;;;;;5133575;27;20470;-79
2023/10/15 04:57:26;;;;;;;11.17;2.20;;;10.80;68.80;;;;;;5128573;27;20469;-80
2023/10/15 04:59:55;;;;;;;7.83;2.03;;;10.90;68.90;;;;;;5105759;28;20895;-79
2023/10/15 05:02:23;;;;;;;9.07;2.20;;;10.90;69.00;;;;;;5123163;28;20515;-79
2023/10/15 05:04:52;;;;;;;8.90;2.73;;;11.00;69.00;;;;;;5107834;28;20482;-79
2023/10/15 05:07:21;;;;;;;6.87;1.90;;;11.00;69.10;;;;;;5128566;28;20466;-79
2023/10/15 05:09:51;;;;;;;9.83;2.13;;;11.00;69.00;;;;;;5123842;27;20496;-80
2023/10/15 05:12:20;;;;;;;5.50;2.00;;;11.10;69.00;;;;;;5113439;27;21261;-79
2023/10/15 05:14:49;;;;;;;6.87;2.30;;;11.10;69.10;;;;;;5121571;27;20541;-80
2023/10/15 05:17:20;;;;;;;10.93;2.50;;;11.10;69.00;;;;;;5123394;27;20538;-80
2023/10/15 05:19:53;;;;;;;9.27;2.57;;;11.10;69.10;;;;;;5125004;27;20461;-82
2023/10/15 05:22:21;;;;;;;8.73;1.80;;;11.10;69.20;;;;;;5127348;27;20508;-79
2023/10/15 05:24:49;;;;;;;7.90;2.13;;;11.10;69.20;;;;;;5109213;28;21112;-81
2023/10/15 05:27:17;;;;;;;8.67;2.00;;;11.10;69.20;;;;;;5112652;28;20553;-80
2023/10/15 05:29:46;;;;;;;11.50;2.07;;;11.10;69.40;;;;;;5126936;27;21246;-82
2023/10/15 05:32:14;;;;;;;8.00;2.73;;;11.10;69.50;;;;;;5109481;28;20532;-81
2023/10/15 05:34:43;;;;;;;6.83;1.93;;;11.10;69.50;;;;;;5127429;27;20809;-81
2023/10/15 05:37:11;;;;;;;10.17;2.40;;;11.10;69.60;;;;;;5127824;28;20450;-81
2023/10/15 05:39:41;;;;;;;9.07;2.13;;;11.10;69.60;;;;;;5123588;27;20945;-80
2023/10/15 05:42:09;;;;;;;7.67;2.00;;;11.10;69.60;;;;;;5126439;27;20524;-80
2023/10/15 05:44:37;;;;;;;8.10;2.20;;;11.10;69.70;;;;;;5127460;28;20570;-80
2023/10/15 05:47:06;;;;;;;9.93;2.70;;;11.10;69.80;;;;;;5125741;28;20537;-81
2023/10/15 05:49:34;;;;;;;8.60;2.00;;;11.10;69.80;;;;;;5117714;27;20553;-79
2023/10/15 05:52:06;;;;;;;7.13;2.10;;;11.10;69.90;;;;;;5124251;27;20541;-80
2023/10/15 05:54:34;;;;;;;9.10;2.30;;;11.10;70.10;;;;;;5131681;27;20715;-80
2023/10/15 05:57:02;;;;;;;16.90;3.07;;;11.20;70.10;;;;;;5113502;27;20449;-80
2023/10/15 05:59:31;;;;;;;10.73;2.43;;;11.20;70.10;;;;;;5132035;27;20480;-79
2023/10/15 06:02:00;;;;;;;7.00;2.00;;;11.20;70.20;;;;;;5111210;27;20491;-80
2023/10/15 06:04:28;;;;;;;5.53;2.13;;;11.20;70.20;;;;;;5133465;27;20471;-80
2023/10/15 06:06:57;;;;;;;15.97;2.40;;;11.20;70.20;;;;;;5113715;27;20458;-80
2023/10/15 06:09:27;;;;;;;5.07;1.90;;;11.20;70.20;;;;;;5127154;27;20454;-77
2023/10/15 06:11:56;;;;;;;6.57;1.80;;;11.30;70.30;;;;;;5131253;27;20457;-80
2023/10/15 06:14:24;;;;;;;5.30;1.97;;;11.30;70.30;;;;;;5109235;27;20718;-78
2023/10/15 06:16:53;;;;;;;11.30;2.80;;;11.30;70.30;;;;;;5136756;27;20462;-79
2023/10/15 06:19:23;;;;;;;6.70;1.90;;;11.30;70.40;;;;;;5129449;27;20561;-80
2023/10/15 06:21:52;;;;;;;7.93;2.20;;;11.30;70.40;;;;;;5112307;27;20455;-79
2023/10/15 06:24:20;;;;;;;10.60;2.17;;;11.40;70.40;;;;;;5131753;27;20521;-78
2023/10/15 06:26:50;;;;;;;5.67;2.00;;;11.40;70.40;;;;;;5109532;27;20443;-79
2023/10/15 06:29:18;;;;;;;5.87;2.00;;;11.40;70.40;;;;;;5128510;27;20455;-78
2023/10/15 06:31:47;;;;;;;6.17;2.37;;;11.40;70.30;;;;;;5115038;27;21757;-79
2023/10/15 06:34:16;;;;;;;9.43;2.07;;;11.40;70.30;;;;;;5107609;27;20996;-79
2023/10/15 06:36:47;;;;;;;7.80;3.03;;;11.40;70.30;;;;;;5130530;27;20540;-80
2023/10/15 06:39:15;;;;;;;6.53;2.40;;;11.40;70.30;;;;;;5104330;27;20462;-78
2023/10/15 06:41:43;;;;;;;6.03;2.73;;;11.40;70.30;;;;;;5115871;27;20487;-80
2023/10/15 06:44:13;;;;;;;7.67;2.37;;;11.40;70.30;;;;;;5112523;27;20475;-80
2023/10/15 06:46:41;;;;;;;5.10;2.20;;;11.40;70.30;;;;;;5136800;27;21025;-79
2023/10/15 06:49:10;;;;;;;5.80;2.40;;;11.40;70.30;;;;;;5109687;27;20481;-78
2023/10/15 06:51:39;;;;;;;6.93;2.20;;;11.40;70.30;;;;;;5113051;27;20480;-80
2023/10/15 06:54:07;;;;;;;8.20;1.97;;;11.40;70.30;;;;;;5131739;27;20446;-81
2023/10/15 06:56:36;;;;;;;16.73;3.57;;;11.40;70.30;;;;;;5132578;27;20555;-80
2023/10/15 06:59:04;;;;;;;8.77;2.40;;;11.40;70.30;;;;;;5130258;27;20450;-80
2023/10/15 07:01:34;;;;;;;9.10;2.30;;;11.40;70.40;;;;;;5110715;27;20471;-80
2023/10/15 07:04:07;;;;;;;16.90;2.97;;;11.40;70.60;;;;;;5108321;27;20512;-78
2023/10/15 07:06:39;;;;;;;11.77;3.10;;;11.40;70.60;;;;;;5127994;27;20471;-78
2023/10/15 07:09:10;;;;;;;7.53;2.33;;;11.40;70.70;;;;;;5129950;27;20470;-78
2023/10/15 07:11:40;;;;;;;9.80;2.50;;;11.40;70.70;;;;;;5132247;27;20435;-82
2023/10/15 07:14:08;;;;;;;8.20;1.80;;;11.40;70.90;;;;;;5133491;27;20489;-77
2023/10/15 07:16:43;;;;;;;12.00;2.80;;;11.50;71.00;;;;;;5110328;27;20462;-80
2023/10/15 07:19:20;;;;;;;7.87;2.43;;;11.50;71.00;;;;;;5135572;27;20450;-79
2023/10/15 07:21:52;;;;;;;15.30;3.27;;;11.50;71.00;;;;;;5113961;27;20459;-78
2023/10/15 07:24:27;;;;;;;8.30;2.57;;;11.60;71.00;;;;;;5115056;27;20455;-78
2023/10/15 07:27:01;;;;;;;10.70;3.40;;;11.60;71.00;;;;;;5130780;27;20991;-78
2023/10/15 07:29:29;;;;;;;6.27;2.50;;;11.60;71.10;;;;;;5114832;27;20487;-79
2023/10/15 07:32:01;;;;;;;10.13;3.00;;;11.60;71.10;;;;;;5109032;27;20495;-78
2023/10/15 07:34:31;;;;;;;10.43;2.60;;;11.60;71.20;;;;;;5129838;27;20450;-78
2023/10/15 07:37:01;;;;;;;15.23;3.53;;;11.70;71.30;;;;;;5116808;27;20455;-81
2023/10/15 07:39:31;;;;;;;9.70;2.87;;;11.70;71.30;;;;;;5116825;27;20466;-77
2023/10/15 07:42:02;;;;;;;10.97;3.00;;;11.80;71.40;;;;;;5097504;27;20451;-80
2023/10/15 07:44:32;;;;;;;9.10;2.73;;;11.80;71.40;;;;;;5128832;27;20458;-79
2023/10/15 07:47:04;;;;;;;9.43;2.90;;;11.90;71.40;;;;;;5109175;27;20486;-79
2023/10/15 07:49:34;;;;;;;13.20;2.90;;;11.90;71.50;;;;;;5111734;27;20554;-79
2023/10/15 07:52:03;;;;;;;10.87;3.17;;;11.90;71.40;;;;;;5133071;27;20469;-79
2023/10/15 07:54:32;;;;;;;12.00;2.60;;;11.90;71.50;;;;;;5129971;27;20451;-79
2023/10/15 07:57:02;;;;;;;15.77;3.23;;;11.90;71.60;;;;;;5132125;27;20538;-78
2023/10/15 07:59:32;;;;;;;8.80;2.80;;;12.00;71.70;;;;;;5131047;27;20455;-79
2023/10/15 08:02:03;;;;;;;13.50;4.03;;;12.00;71.70;;;;;;5089375;27;20492;-80
2023/10/15 08:04:33;;;;;;;8.23;2.80;;;12.00;71.80;;;;;;5114130;27;20965;-79
2023/10/15 08:07:02;;;;;;;14.53;2.80;;;12.10;71.80;;;;;;5128789;27;20531;-79
2023/10/15 08:09:32;;;;;;;9.43;2.73;;;12.10;71.80;;;;;;5129677;27;20482;-79
2023/10/15 08:12:01;;;;;;;8.70;3.00;;;12.10;71.90;;;;;;5129227;27;20985;-77
2023/10/15 08:14:30;;;;;;;9.97;3.00;;;12.10;72.00;;;;;;5109008;27;20474;-79
2023/10/15 08:16:59;;;;;;;10.33;2.93;;;12.10;72.10;;;;;;5090613;27;20499;-80
2023/10/15 08:19:28;;;;;;;9.43;3.10;;;12.20;72.00;;;;;;5115728;27;20466;-78
2023/10/15 08:21:59;;;;;;;9.07;3.20;;;12.30;72.00;;;;;;5098259;27;20542;-79
2023/10/15 08:24:27;;;;;;;9.23;2.30;;;12.30;72.00;;;;;;5117134;27;20995;-81
2023/10/15 08:26:57;;;;;;;9.03;3.37;;;12.40;72.10;;;;;;5094175;27;20475;-78
2023/10/15 08:29:26;;;;;;;6.70;2.40;;;12.40;72.10;;;;;;5092838;28;20475;-77
2023/10/15 08:31:55;;;;;;;13.40;2.33;;;12.50;72.20;;;;;;5110896;27;20467;-79
2023/10/15 08:34:24;;;;;;;10.30;2.17;;;12.50;72.20;;;;;;5110292;27;20513;-79
2023/10/15 08:36:58;;;;;;;10.00;3.00;;;12.60;72.20;;;;;;5125501;27;20480;-78
2023/10/15 08:39:27;;;;;;;10.23;2.27;;;12.70;72.10;;;;;;5093769;27;20447;-80
2023/10/15 08:42:00;;;;;;;13.50;2.93;;;12.80;72.00;;;;;;5096025;27;20463;-79
2023/10/15 08:44:29;;;;;;;11.23;3.13;;;12.80;71.90;;;;;;5111530;27;20528;-77
2023/10/15 08:47:04;;;;;;;8.57;2.30;;;12.90;71.80;;;;;;5112279;27;20512;-81
2023/10/15 08:49:36;;;;;;;11.23;2.80;;;13.00;71.70;;;;;;5111187;27;20885;-79
2023/10/15 08:52:10;;;;;;;11.43;2.17;;;13.10;71.50;;;;;;5091015;27;20454;-78
2023/10/15 08:54:40;;;;;;;9.90;2.50;;;13.10;71.50;;;;;;5106466;28;20467;-79
2023/10/15 08:57:12;;;;;;;11.87;1.80;;;13.10;71.40;;;;;;5102813;27;20490;-79
2023/10/15 08:59:47;;;;;;;9.33;2.50;;;13.20;71.40;;;;;;5112425;27;20474;-79
2023/10/15 09:02:18;;;;;;;14.53;2.20;;;13.20;71.30;;;;;;5121717;27;20479;-78
2023/10/15 09:04:48;;;;;;;5.80;1.83;;;13.30;71.10;;;;;;5093536;28;20592;-78
2023/10/15 09:07:18;;;;;;;14.27;2.43;;;13.30;71.00;;;;;;5087274;28;20481;-77
2023/10/15 09:09:49;;;;;;;8.90;2.03;;;13.30;70.80;;;;;;5109018;27;20569;-78
2023/10/15 09:12:19;;;;;;;7.43;1.93;;;13.30;70.70;;;;;;5106404;28;20454;-78
2023/10/15 09:14:48;;;;;;;9.00;1.80;;;13.30;70.40;;;;;;5127344;28;20446;-78
2023/10/15 09:17:18;;;;;;;7.97;2.10;;;13.30;70.30;;;;;;5105989;28;20969;-79
2023/10/15 09:19:48;;;;;;;7.20;2.57;;;13.30;70.20;;;;;;5107071;28;20964;-78
2023/10/15 09:22:21;;;;;;;8.70;2.10;;;13.20;70.00;;;;;;5091943;27;20459;-77
2023/10/15 09:24:51;;;;;;;10.47;2.30;;;13.20;70.00;;;;;;5107805;27;20590;-77
2023/10/15 09:27:21;;;;;;;8.83;2.10;;;13.20;69.70;;;;;;5113438;27;20470;-79
2023/10/15 09:29:49;;;;;;;9.40;1.60;;;13.20;69.80;;;;;;5129971;27;20459;-77
2023/10/15 09:32:17;;;;;;;10.03;2.30;;;13.30;69.80;;;;;;5137878;27;20462;-79
2023/10/15 09:34:48;;;;;;;9.27;2.03;;;13.30;69.60;;;;;;5133186;27;20858;-78
2023/10/15 09:37:20;;;;;;;9.13;2.47;;;13.40;69.50;;;;;;5113841;27;20459;-79
2023/10/15 09:39:50;;;;;;;8.57;1.90;;;13.40;69.50;;;;;;5113318;27;20917;-77
2023/10/15 09:42:18;;;;;;;8.60;2.30;;;13.50;69.00;;;;;;5128778;27;20452;-77
2023/10/15 09:44:51;;;;;;;10.93;2.30;;;13.50;69.10;;;;;;5132531;27;20694;-79
2023/10/15 09:47:19;;;;;;;9.17;2.17;;;13.60;69.20;;;;;;5130967;27;20960;-79
2023/10/15 09:49:47;;;;;;;7.60;1.73;;;13.70;69.20;;;;;;5130913;27;20916;-78
2023/10/15 09:52:16;;;;;;;6.80;1.90;;;13.80;69.20;;;;;;5113124;27;20481;-79
2023/10/15 09:54:47;;;;;;;7.70;1.93;;;13.90;69.10;;;;;;5131507;27;20455;-79
2023/10/15 09:57:16;;;;;;;11.33;1.93;;;13.90;68.80;;;;;;5108986;27;20960;-79
2023/10/15 09:59:53;;;;;;;6.70;1.60;;;13.80;68.20;;;;;;5126217;27;20532;-81
2023/10/15 10:02:32;;;;;;;6.97;2.13;;;13.70;68.10;;;;;;5132822;27;20561;-79
2023/10/15 10:05:27;;;;;;;10.60;1.97;;;13.50;67.80;;;;;;5135433;27;20447;-79
2023/10/15 10:08:08;;;;;;;6.13;1.70;;;13.40;67.70;;;;;;5134754;27;20479;-79
2023/10/15 10:10:52;;;;;;;5.13;1.70;;;13.30;67.80;;;;;;5111766;27;20459;-80
2023/10/15 10:13:49;;;;;;;9.20;1.60;;;13.30;67.80;;;;;;5131297;27;20458;-80
2023/10/15 10:16:25;;;;;;;5.67;1.40;;;13.30;67.80;;;;;;5113041;27;20454;-78
2023/10/15 10:18:54;;;;;;;8.33;1.40;;;13.30;67.80;;;;;;5131019;27;20454;-78
2023/10/15 10:21:22;;;;;;;6.10;1.70;;;13.20;67.70;;;;;;5130578;27;20538;-79
2023/10/15 10:23:53;;;;;;;7.57;1.80;;;13.30;67.70;;;;;;5123836;27;20497;-79
2023/10/15 10:26:28;;;;;;;8.10;1.47;;;13.30;67.60;;;;;;5128506;27;20456;-79
2023/10/15 10:28:59;;;;;;;13.43;1.93;;;13.30;67.60;;;;;;5130531;27;20482;-78
2023/10/15 10:31:31;;;;;;;5.97;1.80;;;13.30;67.30;;;;;;5108703;27;20481;-79
2023/10/15 10:34:03;;;;;;;8.80;2.03;;;13.20;67.20;;;;;;5131323;27;20512;-80
2023/10/15 10:36:37;;;;;;;7.33;1.63;;;13.20;67.40;;;;;;5126708;27;20975;-79
2023/10/15 10:39:18;;;;;;;7.53;1.70;;;13.20;67.30;;;;;;5132065;27;20452;-79
2023/10/15 10:41:51;;;;;;;8.77;1.90;;;13.30;67.10;;;;;;5114875;27;20815;-79
2023/10/15 10:44:38;;;;;;;7.00;1.60;;;13.20;66.80;;;;;;5132004;27;20952;-78
2023/10/15 10:47:21;;;;;;;6.93;1.60;;;13.10;66.70;;;;;;5135886;27;20861;-79
2023/10/15 10:49:56;;;;;;;6.63;1.73;;;13.20;66.80;;;;;;5129928;27;20486;-78
2023/10/15 10:52:36;;;;;;;8.90;2.10;;;13.20;66.80;;;;;;5110735;27;20461;-78
2023/10/15 10:55:30;;;;;;;6.60;2.03;;;13.20;66.70;;;;;;5137308;27;20458;-78
2023/10/15 10:58:03;;;;;;;6.43;1.73;;;13.20;66.70;;;;;;5134976;27;20458;-78
2023/10/15 11:00:31;;;;;;;7.73;2.20;;;13.20;66.60;;;;;;5126212;27;21134;-78
2023/10/15 11:03:10;;;;;;;6.10;1.70;;;13.30;66.60;;;;;;5127857;27;20576;-78
2023/10/15 11:05:41;;;;;;;4.83;1.30;;;13.30;66.70;;;;;;5127574;27;20547;-79
2023/10/15 11:08:17;;;;;;;5.37;1.60;;;13.40;66.60;;;;;;5127565;27;20482;-78
2023/10/15 11:10:47;;;;;;;6.80;1.63;;;13.50;66.60;;;;;;5130401;27;20459;-79
2023/10/15 11:13:17;;;;;;;4.60;1.63;;;13.50;66.70;;;;;;5125121;27;20455;-78
2023/10/15 11:15:46;;;;;;;5.47;1.60;;;13.70;66.70;;;;;;5110735;27;20451;-79
2023/10/15 11:18:21;;;;;;;8.20;2.20;;;13.70;66.50;;;;;;5129816;27;20507;-79
2023/10/15 11:20:52;;;;;;;8.57;2.03;;;13.80;66.40;;;;;;5122747;27;20456;-80
2023/10/15 11:23:23;;;;;;;6.50;1.50;;;13.90;66.40;;;;;;5127219;27;20974;-79
2023/10/15 11:25:54;;;;;;;6.20;1.27;;;14.00;66.50;;;;;;5102902;27;20458;-79
2023/10/15 11:28:25;;;;;;;6.90;1.80;;;14.10;66.40;;;;;;5126709;27;20469;-79
2023/10/15 11:30:53;;;;;;;5.90;1.20;;;14.20;66.20;;;;;;5129485;27;20471;-79
2023/10/15 11:33:24;;;;;;;8.20;1.57;;;14.30;66.20;;;;;;5131583;27;20856;-79
2023/10/15 11:35:55;;;;;;;6.10;1.30;;;14.30;65.80;;;;;;5110772;27;20447;-79
2023/10/15 11:38:32;;;;;;;6.37;1.23;;;14.20;65.10;;;;;;5126516;27;20447;-79
2023/10/15 11:41:03;;;;;;;9.43;1.87;;;14.20;65.00;;;;;;5127778;27;20460;-78
2023/10/15 11:43:35;;;;;;;5.03;1.50;;;14.10;65.00;;;;;;5102529;27;21032;-79
2023/10/15 11:46:09;;;;;;;5.90;1.30;;;14.00;64.60;;;;;;5129031;27;20910;-79
2023/10/15 11:48:38;;;;;;;5.90;1.40;;;13.80;64.30;;;;;;5130408;27;20496;-78
2023/10/15 11:51:08;;;;;;;6.57;1.57;;;13.60;64.70;;;;;;5109757;27;20851;-79
2023/10/15 11:53:36;;;;;;;4.20;0.70;;;13.40;64.90;;;;;;5111607;27;21389;-81
2023/10/15 11:56:05;;;;;;;3.77;0.80;;;13.20;65.00;;;;;;5106249;27;20468;-80
2023/10/15 11:58:35;;;;;;;5.73;0.90;;;13.10;65.20;;;;;;5111302;27;20470;-80
2023/10/15 12:01:03;;;;;;;4.00;0.93;;;13.00;65.50;;;;;;5128659;27;21420;-79
2023/10/15 12:03:32;;;;;;;6.63;1.17;;;13.00;65.80;;;;;;5130887;27;20845;-78
2023/10/15 12:06:04;;;;;;;3.93;1.00;;;13.00;66.00;;;;;;5127532;27;20458;-80
2023/10/15 12:08:31;;;;;;;3.70;0.80;;;13.00;66.20;;;;;;5130124;27;20565;-79
2023/10/15 12:10:59;;;;;;;5.60;1.00;;;13.00;66.40;;;;;;5129348;27;21168;-79
2023/10/15 12:13:27;;;;;;;4.00;1.00;;;13.10;66.50;;;;;;5110108;27;20860;-80
2023/10/15 12:15:57;;;;;;;5.33;1.20;;;13.10;66.50;;;;;;5111059;27;21053;-80
2023/10/15 12:18:25;;;;;;;5.47;1.40;;;13.10;66.70;;;;;;5129747;27;20801;-79
2023/10/15 12:20:53;;;;;;;4.00;1.10;;;13.00;66.80;;;;;;5111736;27;20460;-80
2023/10/15 12:23:21;;;;;;;6.77;1.60;;;13.00;67.10;;;;;;5111811;27;21109;-80
2023/10/15 12:25:49;;;;;;;5.73;1.57;;;13.00;67.30;;;;;;5129363;27;20512;-81
2023/10/15 12:28:17;;;;;;;4.23;1.40;;;13.10;67.50;;;;;;5118878;27;20479;-79
2023/10/15 12:30:46;;;;;;;4.90;1.20;;;13.10;67.70;;;;;;5109394;27;20508;-79
2023/10/15 12:33:16;;;;;;;4.63;1.40;;;13.20;67.80;;;;;;5128675;27;20443;-81
2023/10/15 12:35:47;;;;;;;6.90;1.87;;;13.20;68.10;;;;;;5111197;27;20517;-80
2023/10/15 12:38:26;;;;;;;6.67;1.90;;;13.30;68.30;;;;;;5129080;27;20467;-80
2023/10/15 12:40:56;;;;;;;6.17;1.50;;;13.40;68.50;;;;;;5125410;27;20463;-79
2023/10/15 12:43:24;;;;;;;7.77;2.10;;;13.50;68.60;;;;;;5128039;27;20443;-79
2023/10/15 12:45:53;;;;;;;6.00;1.90;;;13.50;68.60;;;;;;5108965;27;20459;-81
2023/10/15 12:48:23;;;;;;;5.07;1.63;;;13.50;68.50;;;;;;5125783;27;20563;-80
2023/10/15 12:50:51;;;;;;;6.87;2.47;;;13.60;68.50;;;;;;5126853;27;20465;-81
2023/10/15 12:53:20;;;;;;;8.43;1.60;;;13.60;68.40;;;;;;5129383;27;20516;-79
2023/10/15 12:55:48;;;;;;;6.27;1.60;;;13.70;68.30;;;;;;5110610;28;20443;-81
2023/10/15 12:58:17;;;;;;;6.60;1.50;;;13.70;68.30;;;;;;5128918;27;20451;-80
2023/10/15 13:00:48;;;;;;;6.30;1.70;;;13.70;68.30;;;;;;5108735;28;20542;-80
2023/10/15 13:03:17;;;;;;;6.63;1.50;;;13.80;68.10;;;;;;5128924;28;21157;-81
2023/10/15 13:05:46;;;;;;;5.00;1.43;;;13.80;67.90;;;;;;5110226;28;20496;-80
2023/10/15 13:08:14;;;;;;;6.37;1.67;;;13.80;67.80;;;;;;5128251;28;20531;-80
2023/10/15 13:10:42;;;;;;;5.20;1.33;;;13.80;67.90;;;;;;5110878;28;20469;-78
2023/10/15 13:13:11;;;;;;;5.40;1.40;;;13.80;67.90;;;;;;5100511;28;20514;-83
2023/10/15 13:15:39;;;;;;;5.70;1.13;;;13.80;67.50;;;;;;5127644;27;20467;-80